Time;durP1;ratioP1;P1;durP2;ratioP2;P2;SDS_P1;SDS_P2;PMS_P1;PMS_P2;Temp;Humidity;BMP_temperature;BMP_pressure;BME280_temperature;BME280_humidity;BME280_pressure;Samples;Min_cycle;Max_cycle;Signal;HPM_P1;HPM_P2
2023/11/12 00:02:02;;;;;;;;;;;19.00;58.10;;;;;;1498491;78;1186;-54
2023/11/12 00:04:04;;;;;;;;;;;19.00;58.00;;;;;;1503559;78;1950;-58
2023/11/12 00:06:06;;;;;;;;;;;19.00;58.10;;;;;;1504066;78;694;-57
2023/11/12 00:08:08;;;;;;;;;;;19.10;58.20;;;;;;1497035;78;749;-56
2023/11/12 00:10:14;;;;;;;;;;;19.10;58.10;;;;;;1502940;78;785;-59
2023/11/12 00:12:13;;;;;;;;;;;19.10;58.20;;;;;;1495576;78;1829;-59
2023/11/12 00:14:15;;;;;;;;;;;19.00;58.10;;;;;;1492725;78;771;-57
2023/11/12 00:16:17;;;;;;;;;;;19.00;58.00;;;;;;1502264;78;748;-60
2023/11/12 00:18:19;;;;;;;;;;;19.00;58.10;;;;;;1496190;78;869;-60
2023/11/12 00:20:24;;;;;;;;;;;19.00;58.10;;;;;;1502781;78;706;-59
2023/11/12 00:22:25;;;;;;;;;;;19.00;58.00;;;;;;1500472;78;1691;-58
2023/11/12 00:24:28;;;;;;;;;;;19.00;58.00;;;;;;1492626;78;1926;-59
2023/11/12 00:26:30;;;;;;;;;;;19.10;58.20;;;;;;1498005;78;1556;-59
2023/11/12 00:28:32;;;;;;;;;;;19.00;58.00;;;;;;1503970;78;754;-56
2023/11/12 00:30:34;;;;;;;;;;;19.00;58.00;;;;;;1504126;78;800;-57
2023/11/12 00:32:36;;;;;;;;;;;19.10;58.20;;;;;;1498404;78;1175;-60
2023/11/12 00:34:38;;;;;;;;;;;19.00;58.10;;;;;;1502476;78;815;-59
2023/11/12 00:36:42;;;;;;;;;;;19.00;58.10;;;;;;1498491;78;756;-58
2023/11/12 00:38:44;;;;;;;;;;;19.10;58.20;;;;;;1495965;78;1621;-60
2023/11/12 00:40:46;;;;;;;;;;;19.00;58.10;;;;;;1496897;78;1582;-60
2023/11/12 00:42:48;;;;;;;;;;;19.00;58.10;;;;;;1493323;78;1918;-57
2023/11/12 00:44:51;;;;;;;;;;;19.00;58.00;;;;;;1500026;78;716;-58
2023/11/12 00:46:53;;;;;;;;;;;19.00;58.10;;;;;;1492586;78;865;-59
2023/11/12 00:48:56;;;;;;;;;;;19.00;58.10;;;;;;1493182;78;697;-57
2023/11/12 00:50:57;;;;;;;;;;;19.00;58.10;;;;;;1494488;78;809;-59
2023/11/12 00:52:59;;;;;;;;;;;19.10;58.20;;;;;;1490477;78;1189;-58
2023/11/12 00:55:01;;;;;;;;;;;19.00;58.10;;;;;;1497277;78;1667;-54
2023/11/12 00:57:03;;;;;;;;;;;19.00;58.10;;;;;;1501245;78;715;-55
2023/11/12 00:59:05;;;;;;;;;;;19.00;58.10;;;;;;1493240;78;683;-60
2023/11/12 01:01:07;;;;;;;;;;;19.10;58.20;;;;;;1503502;78;699;-61
2023/11/12 01:03:11;;;;;;;;;;;19.00;58.10;;;;;;1493341;78;1930;-56
2023/11/12 01:05:14;;;;;;;;;;;19.00;58.10;;;;;;1502822;78;1358;-57
2023/11/12 01:07:15;;;;;;;;;;;19.00;58.10;;;;;;1503101;78;770;-61
2023/11/12 01:09:17;;;;;;;;;;;19.00;58.10;;;;;;1492431;78;717;-60
2023/11/12 01:11:19;;;;;;;;;;;19.10;58.20;;;;;;1502564;78;879;-59
2023/11/12 01:13:21;;;;;;;;;;;19.00;58.10;;;;;;1498795;78;1124;-61
2023/11/12 01:15:23;;;;;;;;;;;19.00;58.10;;;;;;1491990;78;690;-60
2023/11/12 01:17:25;;;;;;;;;;;19.00;58.00;;;;;;1498978;78;760;-59
2023/11/12 01:19:27;;;;;;;;;;;19.00;58.10;;;;;;1508442;78;772;-60
2023/11/12 01:21:28;;;;;;;;;;;19.10;58.20;;;;;;1497935;78;1340;-60
2023/11/12 01:23:31;;;;;;;;;;;19.00;58.10;;;;;;1500636;78;1955;-59
2023/11/12 01:25:35;;;;;;;;;;;19.00;58.10;;;;;;1497913;78;727;-60
2023/11/12 01:27:37;;;;;;;;;;;19.00;58.10;;;;;;1499456;78;770;-60
2023/11/12 01:29:39;;;;;;;;;;;19.00;58.10;;;;;;1495089;78;771;-61
2023/11/12 01:31:41;;;;;;;;;;;19.00;58.10;;;;;;1497949;78;1134;-61
2023/11/12 01:33:44;;;;;;;;;;;19.00;58.10;;;;;;1499641;78;795;-60
2023/11/12 01:35:46;;;;;;;;;;;19.00;58.10;;;;;;1503699;78;1545;-57
2023/11/12 01:37:48;;;;;;;;;;;19.00;58.10;;;;;;1497113;78;770;-57
2023/11/12 01:39:50;;;;;;;;;;;19.10;58.20;;;;;;1492195;78;712;-59
2023/11/12 01:41:52;;;;;;;;;;;19.10;58.20;;;;;;1497115;78;1171;-60
2023/11/12 01:43:54;;;;;;;;;;;19.00;58.10;;;;;;1505011;78;1930;-61
2023/11/12 01:45:56;;;;;;;;;;;19.00;58.10;;;;;;1496797;78;775;-59
2023/11/12 01:47:58;;;;;;;;;;;19.00;58.10;;;;;;1500132;78;709;-59
2023/11/12 01:50:00;;;;;;;;;;;19.00;58.10;;;;;;1506218;78;1515;-58
2023/11/12 01:52:02;;;;;;;;;;;19.00;58.10;;;;;;1496080;78;1161;-58
2023/11/12 01:54:04;;;;;;;;;;;19.00;58.10;;;;;;1498145;78;768;-57
2023/11/12 01:56:07;;;;;;;;;;;19.00;58.10;;;;;;1495496;78;741;-58
2023/11/12 01:58:12;;;;;;;;;;;19.00;58.10;;;;;;1497995;78;772;-60
2023/11/12 02:00:16;;;;;;;;;;;19.00;58.10;;;;;;1491684;78;707;-59
2023/11/12 02:02:18;;;;;;;;;;;19.00;58.10;;;;;;1494404;78;1149;-61
2023/11/12 02:04:19;;;;;;;;;;;19.00;58.10;;;;;;1499283;78;1915;-60
2023/11/12 02:06:21;;;;;;;;;;;19.00;58.10;;;;;;1502509;78;788;-59
2023/11/12 02:08:24;;;;;;;;;;;19.00;58.10;;;;;;1493930;78;736;-60
2023/11/12 02:10:28;;;;;;;;;;;19.00;58.10;;;;;;1500917;78;701;-58
2023/11/12 02:12:29;;;;;;;;;;;19.00;58.00;;;;;;1492608;78;1708;-60
2023/11/12 02:14:32;;;;;;;;;;;19.00;58.10;;;;;;1503563;78;783;-58
2023/11/12 02:16:34;;;;;;;;;;;19.00;58.10;;;;;;1495002;78;734;-58
2023/11/12 02:18:36;;;;;;;;;;;19.00;58.10;;;;;;1504176;78;1303;-60
2023/11/12 02:20:44;;;;;;;;;;;19.00;58.10;;;;;;1492698;78;723;-58
2023/11/12 02:22:46;;;;;;;;;;;19.00;58.10;;;;;;1497766;78;1147;-59
2023/11/12 02:24:48;;;;;;;;;;;19.00;58.10;;;;;;1498441;78;1913;-61
2023/11/12 02:26:50;;;;;;;;;;;19.00;58.20;;;;;;1491643;78;686;-57
2023/11/12 02:28:52;;;;;;;;;;;19.00;58.10;;;;;;1491651;78;694;-58
2023/11/12 02:30:54;;;;;;;;;;;19.00;58.10;;;;;;1492208;78;722;-60
2023/11/12 02:32:56;;;;;;;;;;;19.00;58.10;;;;;;1497658;78;1528;-56
2023/11/12 02:34:58;;;;;;;;;;;19.00;58.10;;;;;;1494304;78;715;-54
2023/11/12 02:37:00;;;;;;;;;;;19.00;58.10;;;;;;1493750;78;633;-56
2023/11/12 02:39:02;;;;;;;;;;;19.00;58.10;;;;;;1493296;78;720;-60
2023/11/12 02:41:09;;;;;;;;;;;19.00;58.10;;;;;;1501541;78;734;-56
2023/11/12 02:43:09;;;;;;;;;;;19.00;58.10;;;;;;1499996;78;1500;-60
2023/11/12 02:45:11;;;;;;;;;;;19.00;58.10;;;;;;1496348;78;1908;-61
2023/11/12 02:47:13;;;;;;;;;;;19.00;58.10;;;;;;1495575;78;1578;-60
2023/11/12 02:49:33;;;;;;;;;;;19.00;58.10;;;;;;1497305;78;628;-61
2023/11/12 02:51:35;;;;;;;;;;;19.00;58.10;;;;;;1496357;78;1190;-57
2023/11/12 02:53:37;;;;;;;;;;;19.00;58.10;;;;;;1499714;78;649;-60
2023/11/12 02:55:39;;;;;;;;;;;19.00;58.10;;;;;;1499312;78;881;-60
2023/11/12 02:57:41;;;;;;;;;;;19.00;58.10;;;;;;1498189;78;778;-60
2023/11/12 02:59:43;;;;;;;;;;;19.00;58.10;;;;;;1503395;78;763;-58
2023/11/12 03:01:45;;;;;;;;;;;19.00;58.10;;;;;;1502869;78;1705;-59
2023/11/12 03:03:46;;;;;;;;;;;19.00;58.10;;;;;;1489961;78;1933;-58
2023/11/12 03:05:48;;;;;;;;;;;18.90;58.10;;;;;;1499140;78;798;-61
2023/11/12 03:07:50;;;;;;;;;;;18.90;58.10;;;;;;1500399;78;758;-61
2023/11/12 03:09:54;;;;;;;;;;;19.00;58.10;;;;;;1497080;78;771;-57
2023/11/12 03:11:56;;;;;;;;;;;19.00;58.10;;;;;;1494149;78;1168;-56
2023/11/12 03:13:58;;;;;;;;;;;18.90;58.10;;;;;;1491754;78;1492;-56
2023/11/12 03:16:00;;;;;;;;;;;19.00;58.10;;;;;;1498424;78;843;-58
2023/11/12 03:18:03;;;;;;;;;;;19.00;58.10;;;;;;1498754;78;723;-55
2023/11/12 03:20:07;;;;;;;;;;;18.90;58.10;;;;;;1497316;78;694;-57
2023/11/12 03:22:09;;;;;;;;;;;18.90;58.10;;;;;;1501273;78;1134;-61
2023/11/12 03:24:11;;;;;;;;;;;19.00;58.10;;;;;;1498002;78;1950;-60
2023/11/12 03:26:13;;;;;;;;;;;18.90;58.10;;;;;;1498893;78;777;-54
2023/11/12 03:28:14;;;;;;;;;;;19.00;58.10;;;;;;1498426;78;1312;-60
2023/11/12 03:30:16;;;;;;;;;;;19.00;58.10;;;;;;1498298;78;705;-58
2023/11/12 03:32:21;;;;;;;;;;;19.00;58.10;;;;;;1506847;78;1134;-60
2023/11/12 03:34:24;;;;;;;;;;;19.00;58.20;;;;;;1499374;78;968;-60
2023/11/12 03:36:25;;;;;;;;;;;19.00;58.10;;;;;;1494879;78;1473;-59
2023/11/12 03:38:27;;;;;;;;;;;19.00;58.10;;;;;;1500751;78;808;-57
2023/11/12 03:40:29;;;;;;;;;;;19.00;58.10;;;;;;1502258;78;780;-55
2023/11/12 03:42:31;;;;;;;;;;;19.00;58.10;;;;;;1496261;78;1554;-61
2023/11/12 03:44:33;;;;;;;;;;;19.00;58.20;;;;;;1494915;78;1917;-61
2023/11/12 03:46:35;;;;;;;;;;;18.90;58.20;;;;;;1498213;78;769;-61
2023/11/12 03:48:37;;;;;;;;;;;18.90;58.20;;;;;;1500546;78;828;-61
2023/11/12 03:50:39;;;;;;;;;;;19.00;58.20;;;;;;1497446;78;804;-61
2023/11/12 03:52:41;;;;;;;;;;;18.90;58.20;;;;;;1500333;78;1200;-59
2023/11/12 03:54:43;;;;;;;;;;;19.00;58.20;;;;;;1500582;78;741;-61
2023/11/12 03:56:45;;;;;;;;;;;19.00;58.20;;;;;;1497058;78;1575;-58
2023/11/12 03:58:47;;;;;;;;;;;18.90;58.20;;;;;;1499191;78;722;-59
2023/11/12 04:00:48;;;;;;;;;;;19.00;58.20;;;;;;1503532;78;740;-61
2023/11/12 04:02:51;;;;;;;;;;;19.00;58.30;;;;;;1491813;78;1155;-61
2023/11/12 04:04:52;;;;;;;;;;;19.00;58.20;;;;;;1502908;78;1929;-60
2023/11/12 04:06:54;;;;;;;;;;;19.00;58.20;;;;;;1499685;78;791;-61
2023/11/12 04:08:56;;;;;;;;;;;19.00;58.20;;;;;;1501664;78;782;-61
2023/11/12 04:10:58;;;;;;;;;;;18.90;58.30;;;;;;1497702;78;1562;-56
2023/11/12 04:13:02;;;;;;;;;;;18.90;58.20;;;;;;1502011;78;1140;-55
2023/11/12 04:15:04;;;;;;;;;;;19.00;58.20;;;;;;1499679;78;732;-56
2023/11/12 04:17:06;;;;;;;;;;;18.90;58.20;;;;;;1500670;78;730;-59
2023/11/12 04:19:08;;;;;;;;;;;18.90;58.20;;;;;;1500228;78;652;-61
2023/11/12 04:21:10;;;;;;;;;;;19.00;58.30;;;;;;1500595;78;797;-60
2023/11/12 04:23:12;;;;;;;;;;;19.00;58.20;;;;;;1497289;78;1144;-61
2023/11/12 04:25:14;;;;;;;;;;;19.00;58.20;;;;;;1502165;78;1934;-61
2023/11/12 04:27:16;;;;;;;;;;;19.00;58.20;;;;;;1499465;78;742;-59
2023/11/12 04:29:18;;;;;;;;;;;19.00;58.20;;;;;;1500717;78;749;-61
2023/11/12 04:31:20;;;;;;;;;;;19.00;58.20;;;;;;1491556;78;857;-61
2023/11/12 04:33:21;;;;;;;;;;;19.00;58.20;;;;;;1489593;78;1134;-61
2023/11/12 04:35:23;;;;;;;;;;;19.00;58.20;;;;;;1496270;78;766;-61
2023/11/12 04:37:25;;;;;;;;;;;19.00;58.20;;;;;;1500118;78;706;-60
2023/11/12 04:39:27;;;;;;;;;;;19.00;58.20;;;;;;1493421;78;1400;-60
2023/11/12 04:41:29;;;;;;;;;;;19.00;58.20;;;;;;1502992;78;798;-60
2023/11/12 04:43:31;;;;;;;;;;;19.00;58.20;;;;;;1495658;78;1183;-60
2023/11/12 04:45:33;;;;;;;;;;;19.00;58.20;;;;;;1501081;78;1929;-61
2023/11/12 04:47:35;;;;;;;;;;;18.90;58.20;;;;;;1494271;78;711;-60
2023/11/12 04:49:38;;;;;;;;;;;18.90;58.20;;;;;;1504949;78;779;-61
2023/11/12 04:51:40;;;;;;;;;;;19.00;58.20;;;;;;1499660;78;1156;-60
2023/11/12 04:53:42;;;;;;;;;;;19.00;58.20;;;;;;1498893;78;1593;-59
2023/11/12 04:55:44;;;;;;;;;;;19.00;58.20;;;;;;1501217;78;734;-60
2023/11/12 04:57:46;;;;;;;;;;;19.00;58.20;;;;;;1498983;78;803;-62
2023/11/12 04:59:48;;;;;;;;;;;19.00;58.20;;;;;;1508615;78;733;-61
2023/11/12 05:01:50;;;;;;;;;;;19.00;58.20;;;;;;1497700;78;1142;-61
2023/11/12 05:03:52;;;;;;;;;;;19.00;58.20;;;;;;1494467;78;743;-60
2023/11/12 05:05:54;;;;;;;;;;;19.00;58.20;;;;;;1487648;78;1923;-61
2023/11/12 05:07:56;;;;;;;;;;;18.90;58.20;;;;;;1502964;78;1522;-60
2023/11/12 05:09:57;;;;;;;;;;;18.90;58.10;;;;;;1492027;78;694;-61
2023/11/12 05:11:59;;;;;;;;;;;19.00;58.10;;;;;;1498072;78;1092;-60
2023/11/12 05:14:01;;;;;;;;;;;19.00;58.10;;;;;;1500885;78;705;-61
2023/11/12 05:16:03;;;;;;;;;;;19.00;58.10;;;;;;1502325;78;791;-61
2023/11/12 05:18:05;;;;;;;;;;;18.90;58.10;;;;;;1477112;79;726;-61
2023/11/12 05:20:08;;;;;;;;;;;18.90;58.20;;;;;;1446052;81;728;-60
2023/11/12 05:22:09;;;;;;;;;;;19.00;58.10;;;;;;1468892;79;1569;-61
2023/11/12 05:24:12;;;;;;;;;;;19.00;58.20;;;;;;1463802;79;748;-61
2023/11/12 05:26:14;;;;;;;;;;;19.00;58.20;;;;;;1467379;79;1914;-60
2023/11/12 05:28:16;;;;;;;;;;;19.00;58.20;;;;;;1500771;78;756;-61
2023/11/12 05:30:18;;;;;;;;;;;19.00;58.10;;;;;;1501719;78;792;-60
2023/11/12 05:32:20;;;;;;;;;;;18.90;58.10;;;;;;1487280;78;1153;-61
2023/11/12 05:34:22;;;;;;;;;;;19.00;58.20;;;;;;1497341;78;884;-61
2023/11/12 05:36:24;;;;;;;;;;;19.00;58.10;;;;;;1509760;78;1466;-61
2023/11/12 05:38:26;;;;;;;;;;;18.90;58.20;;;;;;1494580;78;707;-61
2023/11/12 05:40:29;;;;;;;;;;;19.00;58.20;;;;;;1500174;78;670;-61
2023/11/12 05:42:31;;;;;;;;;;;19.00;58.10;;;;;;1496956;78;1149;-61
2023/11/12 05:44:33;;;;;;;;;;;19.00;58.20;;;;;;1502059;78;697;-61
2023/11/12 05:46:34;;;;;;;;;;;19.00;58.20;;;;;;1502927;78;1951;-59
2023/11/12 05:48:36;;;;;;;;;;;18.90;58.10;;;;;;1497118;78;1441;-55
2023/11/12 05:50:38;;;;;;;;;;;18.90;58.20;;;;;;1499396;78;727;-59
2023/11/12 05:52:42;;;;;;;;;;;19.00;58.10;;;;;;1502534;78;1180;-61
2023/11/12 05:54:44;;;;;;;;;;;19.00;58.20;;;;;;1502617;78;718;-60
2023/11/12 05:56:45;;;;;;;;;;;18.90;58.20;;;;;;1496361;78;773;-60
2023/11/12 05:58:47;;;;;;;;;;;19.00;58.10;;;;;;1496674;78;746;-58
2023/11/12 06:00:54;;;;;;;;;;;19.00;58.10;;;;;;1493942;78;752;-55
2023/11/12 06:02:53;;;;;;;;;;;19.00;58.10;;;;;;1497419;78;1652;-61
2023/11/12 06:04:55;;;;;;;;;;;18.90;58.10;;;;;;1503390;78;1935;-60
2023/11/12 06:06:56;;;;;;;;;;;18.90;58.10;;;;;;1494438;78;775;-55
2023/11/12 06:08:58;;;;;;;;;;;19.00;58.10;;;;;;1504531;78;657;-58
2023/11/12 06:11:00;;;;;;;;;;;19.00;58.10;;;;;;1498106;78;764;-59
2023/11/12 06:13:02;;;;;;;;;;;19.00;58.10;;;;;;1493268;78;1156;-55
2023/11/12 06:15:05;;;;;;;;;;;18.90;58.00;;;;;;1502774;78;738;-58
2023/11/12 06:17:07;;;;;;;;;;;19.00;58.10;;;;;;1503509;78;1278;-58
2023/11/12 06:19:09;;;;;;;;;;;18.90;58.10;;;;;;1496972;78;786;-61
2023/11/12 06:21:11;;;;;;;;;;;18.90;58.10;;;;;;1502298;78;693;-59
2023/11/12 06:23:13;;;;;;;;;;;18.90;58.10;;;;;;1498809;78;1136;-56
2023/11/12 06:25:15;;;;;;;;;;;19.00;58.10;;;;;;1499123;78;1922;-61
2023/11/12 06:27:17;;;;;;;;;;;19.00;58.10;;;;;;1499290;78;757;-58
2023/11/12 06:29:19;;;;;;;;;;;19.00;58.10;;;;;;1499784;78;741;-61
2023/11/12 06:31:21;;;;;;;;;;;18.90;58.10;;;;;;1497930;78;1519;-56
2023/11/12 06:33:23;;;;;;;;;;;18.90;58.10;;;;;;1497844;78;1124;-58
2023/11/12 06:35:25;;;;;;;;;;;19.00;58.10;;;;;;1498251;78;801;-56
2023/11/12 06:37:28;;;;;;;;;;;18.90;58.10;;;;;;1504925;78;717;-56
2023/11/12 06:39:30;;;;;;;;;;;18.90;58.10;;;;;;1501081;78;821;-60
2023/11/12 06:41:33;;;;;;;;;;;18.90;58.10;;;;;;1503963;78;778;-57
2023/11/12 06:43:35;;;;;;;;;;;18.90;58.10;;;;;;1500276;78;694;-57
2023/11/12 06:45:36;;;;;;;;;;;18.90;58.10;;;;;;1502029;78;1920;-57
2023/11/12 06:47:38;;;;;;;;;;;18.90;58.10;;;;;;1493556;78;763;-61
2023/11/12 06:49:40;;;;;;;;;;;18.90;58.10;;;;;;1503245;78;693;-61
2023/11/12 06:51:42;;;;;;;;;;;19.00;58.10;;;;;;1506232;78;1140;-56
2023/11/12 06:53:44;;;;;;;;;;;18.90;58.10;;;;;;1490645;78;929;-55
2023/11/12 06:55:46;;;;;;;;;;;19.00;58.10;;;;;;1496798;78;669;-58
2023/11/12 06:57:48;;;;;;;;;;;18.90;58.00;;;;;;1507683;78;805;-60
2023/11/12 06:59:50;;;;;;;;;;;19.00;58.10;;;;;;1492820;78;1536;-57
2023/11/12 07:01:52;;;;;;;;;;;19.00;58.10;;;;;;1493025;78;1174;-61
2023/11/12 07:03:53;;;;;;;;;;;18.90;58.10;;;;;;1492571;78;682;-60
2023/11/12 07:05:55;;;;;;;;;;;18.90;58.10;;;;;;1504030;78;1946;-59
2023/11/12 07:07:57;;;;;;;;;;;18.90;58.10;;;;;;1497439;78;772;-58
2023/11/12 07:09:59;;;;;;;;;;;18.90;58.10;;;;;;1506192;78;678;-58
2023/11/12 07:12:01;;;;;;;;;;;18.90;58.10;;;;;;1496970;78;1153;-56
2023/11/12 07:14:03;;;;;;;;;;;19.00;58.10;;;;;;1497375;77;1534;-58
2023/11/12 07:16:05;;;;;;;;;;;18.90;58.10;;;;;;1504167;78;772;-58
2023/11/12 07:18:07;;;;;;;;;;;19.00;58.10;;;;;;1503065;78;739;-58
2023/11/12 07:20:11;;;;;;;;;;;18.90;58.10;;;;;;1497313;78;761;-60
2023/11/12 07:22:13;;;;;;;;;;;19.00;58.10;;;;;;1497278;78;1108;-61
2023/11/12 07:24:17;;;;;;;;;;;18.90;58.10;;;;;;1501363;78;820;-58
2023/11/12 07:26:19;;;;;;;;;;;18.90;58.10;;;;;;1499835;78;1918;-61
2023/11/12 07:28:20;;;;;;;;;;;18.90;58.10;;;;;;1491633;78;1498;-61
2023/11/12 07:30:22;;;;;;;;;;;19.00;58.10;;;;;;1499638;78;708;-55
2023/11/12 07:32:25;;;;;;;;;;;18.90;58.10;;;;;;1499484;78;1098;-59
2023/11/12 07:34:27;;;;;;;;;;;19.00;58.10;;;;;;1500971;78;696;-56
2023/11/12 07:36:29;;;;;;;;;;;18.90;58.10;;;;;;1498727;77;783;-56
2023/11/12 07:38:31;;;;;;;;;;;18.90;58.10;;;;;;1507044;78;702;-59
2023/11/12 07:40:33;;;;;;;;;;;18.90;58.10;;;;;;1491792;78;712;-57
2023/11/12 07:42:34;;;;;;;;;;;18.90;58.10;;;;;;1502955;78;1473;-61
2023/11/12 07:44:36;;;;;;;;;;;19.00;58.00;;;;;;1499014;78;723;-59
2023/11/12 07:46:41;;;;;;;;;;;19.00;58.10;;;;;;1501137;78;1927;-58
2023/11/12 07:48:43;;;;;;;;;;;18.90;58.10;;;;;;1508252;78;759;-58
2023/11/12 07:50:45;;;;;;;;;;;19.00;58.10;;;;;;1492804;78;735;-60
2023/11/12 07:52:49;;;;;;;;;;;18.90;58.10;;;;;;1499819;78;1238;-58
2023/11/12 07:54:50;;;;;;;;;;;18.90;58.00;;;;;;1504001;78;703;-60
2023/11/12 07:56:52;;;;;;;;;;;19.00;58.00;;;;;;1500044;78;1484;-59
2023/11/12 07:58:54;;;;;;;;;;;18.90;58.10;;;;;;1504581;78;644;-59
2023/11/12 08:00:56;;;;;;;;;;;18.90;58.10;;;;;;1498380;78;693;-58
2023/11/12 08:02:58;;;;;;;;;;;18.90;58.10;;;;;;1508281;78;1176;-56
2023/11/12 08:05:03;;;;;;;;;;;18.90;58.10;;;;;;1502344;78;712;-59
2023/11/12 08:07:04;;;;;;;;;;;19.00;58.10;;;;;;1499574;78;1942;-58
2023/11/12 08:09:08;;;;;;;;;;;18.90;58.10;;;;;;1496730;78;794;-58
2023/11/12 08:11:09;;;;;;;;;;;18.90;58.10;;;;;;1494251;78;2009;-56
2023/11/12 08:13:11;;;;;;;;;;;18.90;58.10;;;;;;1496900;78;1110;-56
2023/11/12 08:15:13;;;;;;;;;;;18.90;58.10;;;;;;1462215;79;828;-57
2023/11/12 08:17:15;;;;;;;;;;;18.90;58.10;;;;;;1501940;78;845;-59
2023/11/12 08:19:17;;;;;;;;;;;18.90;58.10;;;;;;1492868;78;839;-58
2023/11/12 08:21:18;;;;;;;;;;;19.00;58.10;;;;;;1492215;78;749;-59
2023/11/12 08:23:21;;;;;;;;;;;18.90;58.10;;;;;;1500895;78;1560;-55
2023/11/12 08:25:23;;;;;;;;;;;18.90;58.10;;;;;;1494969;78;746;-55
2023/11/12 08:27:24;;;;;;;;;;;18.90;58.10;;;;;;1493660;78;1940;-58
2023/11/12 08:29:27;;;;;;;;;;;19.00;58.10;;;;;;1491849;78;773;-57
2023/11/12 08:31:29;;;;;;;;;;;18.90;58.10;;;;;;1495076;78;760;-58
2023/11/12 08:33:30;;;;;;;;;;;19.00;58.10;;;;;;1501938;78;1168;-57
2023/11/12 08:35:32;;;;;;;;;;;18.90;58.10;;;;;;1460929;80;1047;-56
2023/11/12 08:37:35;;;;;;;;;;;18.90;58.10;;;;;;1464759;80;1524;-58
2023/11/12 08:39:37;;;;;;;;;;;18.90;58.10;;;;;;1458627;80;727;-57
2023/11/12 08:41:39;;;;;;;;;;;18.90;58.10;;;;;;1461761;80;1147;-57
2023/11/12 08:43:44;;;;;;;;;;;18.90;58.10;;;;;;1475813;79;744;-56
2023/11/12 08:45:44;;;;;;;;;;;18.90;58.10;;;;;;1483158;79;1927;-58
2023/11/12 08:47:46;;;;;;;;;;;18.90;58.10;;;;;;1480004;79;804;-58
2023/11/12 08:49:48;;;;;;;;;;;18.90;58.20;;;;;;1481738;79;741;-58
2023/11/12 08:51:50;;;;;;;;;;;19.00;58.10;;;;;;1480898;79;1538;-59
2023/11/12 08:53:52;;;;;;;;;;;18.90;58.20;;;;;;1476735;79;792;-59
2023/11/12 08:55:54;;;;;;;;;;;18.90;58.20;;;;;;1478205;79;805;-61
2023/11/12 08:57:56;;;;;;;;;;;18.90;58.20;;;;;;1485081;79;667;-60
2023/11/12 08:59:58;;;;;;;;;;;18.90;58.20;;;;;;1484400;79;774;-58
2023/11/12 09:01:59;;;;;;;;;;;18.90;58.20;;;;;;1482163;79;1156;-59
2023/11/12 09:04:01;;;;;;;;;;;18.90;58.20;;;;;;1481175;79;725;-60
2023/11/12 09:06:04;;;;;;;;;;;18.90;58.20;;;;;;1485082;79;1930;-58
2023/11/12 09:08:06;;;;;;;;;;;18.90;58.20;;;;;;1479134;79;767;-58
2023/11/12 09:10:08;;;;;;;;;;;18.90;58.20;;;;;;1476071;79;805;-60
2023/11/12 09:12:10;;;;;;;;;;;18.90;58.20;;;;;;1481764;79;1145;-59
2023/11/12 09:14:15;;;;;;;;;;;18.90;58.20;;;;;;1486287;79;850;-61
2023/11/12 09:16:16;;;;;;;;;;;18.90;58.20;;;;;;1483668;79;1932;-57
2023/11/12 09:18:19;;;;;;;;;;;18.90;58.20;;;;;;1485077;79;739;-58
2023/11/12 09:20:22;;;;;;;;;;;18.90;58.20;;;;;;1485871;79;1292;-58
2023/11/12 09:22:24;;;;;;;;;;;18.90;58.20;;;;;;1484171;79;1079;-58
2023/11/12 09:24:27;;;;;;;;;;;18.90;58.20;;;;;;1489657;79;761;-56
2023/11/12 09:26:29;;;;;;;;;;;18.90;58.20;;;;;;1480095;79;1907;-60
2023/11/12 09:28:31;;;;;;;;;;;19.00;58.20;;;;;;1485472;79;735;-60
2023/11/12 09:30:34;;;;;;;;;;;18.90;58.20;;;;;;1483857;79;831;-57
2023/11/12 09:32:36;;;;;;;;;;;18.90;58.20;;;;;;1486705;79;1117;-57
2023/11/12 09:34:38;;;;;;;;;;;19.00;58.20;;;;;;1478836;79;1445;-61
2023/11/12 09:36:40;;;;;;;;;;;18.90;58.20;;;;;;1480480;79;706;-60
2023/11/12 09:38:42;;;;;;;;;;;18.90;58.20;;;;;;1490555;79;934;-61
2023/11/12 09:40:44;;;;;;;;;;;19.00;58.20;;;;;;1480018;79;754;-60
2023/11/12 09:42:48;;;;;;;;;;;19.00;58.20;;;;;;1490002;79;1102;-57
2023/11/12 09:44:50;;;;;;;;;;;18.90;58.20;;;;;;1478551;79;794;-55
2023/11/12 09:46:53;;;;;;;;;;;18.90;58.20;;;;;;1483696;79;1945;-61
2023/11/12 09:48:55;;;;;;;;;;;18.90;58.20;;;;;;1486956;79;1765;-58
2023/11/12 09:50:57;;;;;;;;;;;18.90;58.20;;;;;;1481578;79;783;-60
2023/11/12 09:53:03;;;;;;;;;;;19.00;58.20;;;;;;1478776;79;1091;-60
2023/11/12 09:55:06;;;;;;;;;;;19.00;58.20;;;;;;1480293;79;1577;-59
2023/11/12 09:57:07;;;;;;;;;;;18.90;58.20;;;;;;1478838;79;1654;-61
2023/11/12 09:59:08;;;;;;;;;;;18.90;58.20;;;;;;1478000;79;771;-59
2023/11/12 10:01:13;;;;;;;;;;;18.90;58.20;;;;;;1479614;79;757;-61
2023/11/12 10:03:15;;;;;;;;;;;18.90;58.20;;;;;;1483798;79;1561;-61
2023/11/12 10:05:17;;;;;;;;;;;19.00;58.20;;;;;;1477676;79;694;-57
2023/11/12 10:07:19;;;;;;;;;;;19.00;58.20;;;;;;1482754;79;1943;-61
2023/11/12 10:09:28;;;;;;;;;;;18.90;58.20;;;;;;1478854;79;736;-59
2023/11/12 10:11:30;;;;;;;;;;;18.90;58.20;;;;;;1479061;79;678;-59
2023/11/12 10:13:33;;;;;;;;;;;18.90;58.20;;;;;;1452788;80;1155;-58
2023/11/12 10:15:35;;;;;;;;;;;18.90;58.20;;;;;;1492446;79;1050;-58
2023/11/12 10:17:42;;;;;;;;;;;18.90;58.20;;;;;;1489385;79;1684;-61
2023/11/12 10:19:45;;;;;;;;;;;18.90;58.20;;;;;;1479003;79;981;-62
2023/11/12 10:21:53;;;;;;;;;;;19.00;58.20;;;;;;1482775;79;1884;-60
2023/11/12 10:24:04;;;;;;;;;;;18.90;58.20;;;;;;1475497;79;1013;-60
2023/11/12 10:26:08;;;;;;;;;;;18.90;58.20;;;;;;1487742;79;727;-61
2023/11/12 10:28:10;;;;;;;;;;;19.00;58.20;;;;;;1488661;79;1935;-59
2023/11/12 10:30:21;;;;;;;;;;;18.90;58.20;;;;;;1481020;79;1555;-61
2023/11/12 10:32:25;;;;;;;;;;;18.90;58.10;;;;;;1484379;79;1921;-60
2023/11/12 10:34:27;;;;;;;;;;;18.90;58.20;;;;;;1479914;79;711;-60
2023/11/12 10:36:29;;;;;;;;;;;18.90;58.10;;;;;;1486942;79;854;-61
2023/11/12 10:38:32;;;;;;;;;;;18.90;58.20;;;;;;1487634;79;799;-60
2023/11/12 10:40:35;;;;;;;;;;;18.90;58.20;;;;;;1482708;79;1495;-61
2023/11/12 10:42:36;;;;;;;;;;;18.90;58.20;;;;;;1476396;79;1153;-58
2023/11/12 10:44:38;;;;;;;;;;;18.90;58.20;;;;;;1479836;79;1544;-58
2023/11/12 10:46:43;;;;;;;;;;;18.90;58.20;;;;;;1488401;79;2030;-58
2023/11/12 10:48:44;;;;;;;;;;;18.90;58.20;;;;;;1482600;79;1692;-59
2023/11/12 10:50:46;;;;;;;;;;;19.00;58.10;;;;;;1484323;79;722;-59
2023/11/12 10:52:48;;;;;;;;;;;18.90;58.20;;;;;;1484869;79;1157;-63
2023/11/12 10:54:53;;;;;;;;;;;18.90;58.10;;;;;;1477383;79;824;-55
2023/11/12 10:56:55;;;;;;;;;;;18.90;58.20;;;;;;1478891;79;790;-58
2023/11/12 10:58:57;;;;;;;;;;;19.00;58.20;;;;;;1479931;79;1516;-60
2023/11/12 11:01:01;;;;;;;;;;;18.90;58.20;;;;;;1474627;79;759;-57
2023/11/12 11:03:03;;;;;;;;;;;18.90;58.10;;;;;;1483505;79;1293;-59
2023/11/12 11:05:06;;;;;;;;;;;18.90;58.10;;;;;;1484039;79;751;-58
2023/11/12 11:07:08;;;;;;;;;;;19.00;58.20;;;;;;1481239;79;1931;-61
2023/11/12 11:09:10;;;;;;;;;;;18.90;58.10;;;;;;1477305;79;681;-58
2023/11/12 11:11:12;;;;;;;;;;;18.90;58.10;;;;;;1474413;79;722;-61
2023/11/12 11:13:14;;;;;;;;;;;18.90;58.10;;;;;;1479273;79;1345;-58
2023/11/12 11:15:35;;;;;;;;;;;18.90;58.10;;;;;;1488381;79;720;-58
2023/11/12 11:17:37;;;;;;;;;;;18.90;58.20;;;;;;1480393;79;632;-58
2023/11/12 11:19:51;;;;;;;;;;;18.90;58.20;;;;;;1485556;79;731;-58
2023/11/12 11:22:09;;;;;;;;;;;19.00;58.10;;;;;;1475451;79;1391;-60
2023/11/12 11:24:10;;;;;;;;;;;18.90;58.10;;;;;;1484027;79;692;-61
2023/11/12 11:26:26;;;;;;;;;;;18.90;58.10;;;;;;1481978;79;1582;-61
2023/11/12 11:28:34;;;;;;;;;;;18.90;58.10;;;;;;1482595;79;1946;-57
2023/11/12 11:30:32;;;;;;;;;;;19.00;58.10;;;;;;1475312;79;1625;-57
2023/11/12 11:32:33;;;;;;;;;;;19.10;58.20;;;;;;1490485;79;1138;-57
2023/11/12 11:34:43;;;;;;;;;;;18.90;58.10;;;;;;1482908;79;747;-60
2023/11/12 11:36:59;;;;;;;;;;;18.90;58.10;;;;;;1491384;79;759;-60
2023/11/12 11:39:06;;;;;;;;;;;19.00;58.10;;;;;;1478266;79;808;-60
2023/11/12 11:41:10;;;;;;;;;;;19.00;58.10;;;;;;1482173;79;1597;-58
2023/11/12 11:43:26;;;;;;;;;;;18.90;58.10;;;;;;1485561;79;1173;-60
2023/11/12 11:45:29;;;;;;;;;;;18.90;58.10;;;;;;1484941;79;677;-58
2023/11/12 11:47:31;;;;;;;;;;;19.00;58.10;;;;;;1481722;79;1944;-58
2023/11/12 11:49:33;;;;;;;;;;;18.90;58.10;;;;;;1484363;79;693;-58
2023/11/12 11:51:42;;;;;;;;;;;18.90;58.10;;;;;;1474138;79;1123;-60
2023/11/12 11:53:43;;;;;;;;;;;18.90;58.10;;;;;;1480086;79;1607;-60
2023/11/12 11:55:46;;;;;;;;;;;18.90;58.10;;;;;;1477900;79;1603;-60
2023/11/12 11:57:50;;;;;;;;;;;18.90;58.10;;;;;;1485478;79;724;-60
2023/11/12 11:59:52;;;;;;;;;;;18.90;58.10;;;;;;1474399;79;1479;-57
2023/11/12 12:01:56;;;;;;;;;;;19.00;58.10;;;;;;1486015;79;1209;-60
2023/11/12 12:04:06;;;;;;;;;;;18.90;58.10;;;;;;1482858;79;1680;-59
2023/11/12 12:06:15;;;;;;;;;;;18.90;58.10;;;;;;1481315;79;932;-59
2023/11/12 12:08:17;;;;;;;;;;;18.90;58.10;;;;;;1482895;79;1927;-60
2023/11/12 12:10:26;;;;;;;;;;;18.90;58.10;;;;;;1478604;79;735;-61
2023/11/12 12:12:28;;;;;;;;;;;18.90;58.10;;;;;;1475674;79;1163;-61